createdAt,value
2022-10-30T00:00:20.103Z,98.37
2022-10-30T00:03:16.174Z,98.37
2022-10-30T00:05:48.033Z,98.48
2022-10-30T00:08:19.513Z,98.46
2022-10-30T00:10:50.323Z,98.53
2022-10-30T00:13:19.316Z,98.51
2022-10-30T00:15:53.595Z,98.70
2022-10-30T00:18:21.863Z,98.76
2022-10-30T00:20:50.269Z,98.91
2022-10-30T00:23:20.333Z,99.01
2022-10-30T00:26:08.026Z,98.82
2022-10-30T00:28:36.258Z,98.84
2022-10-30T00:31:05.878Z,98.69
2022-10-30T00:33:34.331Z,98.55
2022-10-30T00:36:05.112Z,98.23
2022-10-30T00:38:33.674Z,98.36
2022-10-30T00:41:23.565Z,98.40
2022-10-30T00:43:52.641Z,98.36
2022-10-30T00:46:38.741Z,98.63
2022-10-30T00:49:16.852Z,98.85
2022-10-30T00:51:50.449Z,99.10
2022-10-30T00:54:20.395Z,99.05
2022-10-30T00:56:50.029Z,99.17
2022-10-30T00:59:26.431Z,99.40
2022-10-30T01:01:55.567Z,99.57
2022-10-30T01:04:29.005Z,99.67
2022-10-30T01:07:05.577Z,99.63
2022-10-30T01:09:34.165Z,99.43
2022-10-30T01:12:02.359Z,99.45
2022-10-30T01:14:31.185Z,99.48
2022-10-30T01:17:55.786Z,99.36
2022-10-30T01:21:23.584Z,99.08
2022-10-30T01:24:22.416Z,99.07
2022-10-30T01:27:36.068Z,98.89
2022-10-30T01:30:52.239Z,98.88
2022-10-30T01:34:13.562Z,98.96
2022-10-30T01:37:06.312Z,99.47
2022-10-30T01:39:39.934Z,99.97
2022-10-30T01:42:44.228Z,100.00
2022-10-30T01:45:59.647Z,99.99
2022-10-30T01:49:03.696Z,99.97
2022-10-30T01:52:25.144Z,100.00
2022-10-30T01:55:42.602Z,100.00
2022-10-30T01:58:29.333Z,100.00
2022-10-30T02:00:59.380Z,100.00
2022-10-30T02:03:46.452Z,100.00
2022-10-30T02:06:14.749Z,100.00
2022-10-30T02:08:43.198Z,100.00
2022-10-30T02:11:12.375Z,100.00
2022-10-30T02:13:40.721Z,100.00
2022-10-30T02:16:10.677Z,100.00
2022-10-30T02:18:56.557Z,100.00
2022-10-30T02:21:42.546Z,100.00
2022-10-30T02:24:10.914Z,100.00
2022-10-30T02:26:39.214Z,100.00
2022-10-30T02:29:07.856Z,100.00
2022-10-30T02:31:37.414Z,100.00
2022-10-30T02:34:06.044Z,100.00
2022-10-30T02:36:34.373Z,100.00
2022-10-30T02:39:02.634Z,100.00
2022-10-30T02:41:30.871Z,100.00
2022-10-30T02:44:16.687Z,100.00
2022-10-30T02:47:02.765Z,100.00
2022-10-30T02:49:48.656Z,100.00
2022-10-30T02:52:16.990Z,100.00
2022-10-30T02:55:03.333Z,100.00
2022-10-30T02:57:49.067Z,100.00
2022-10-30T03:00:17.787Z,100.00
2022-10-30T03:02:46.029Z,100.00
2022-10-30T03:05:31.600Z,100.00
2022-10-30T03:08:00.316Z,100.00
2022-10-30T03:10:28.752Z,100.00
2022-10-30T03:12:58.566Z,100.00
2022-10-30T03:15:26.935Z,100.00
2022-10-30T03:17:55.652Z,100.00
2022-10-30T03:20:24.627Z,100.00
2022-10-30T03:23:10.207Z,100.00
2022-10-30T03:25:38.410Z,100.00
2022-10-30T03:28:06.674Z,100.00
2022-10-30T03:30:34.924Z,100.00
2022-10-30T03:33:03.138Z,100.00
2022-10-30T03:35:31.534Z,100.00
2022-10-30T03:37:59.826Z,100.00
2022-10-30T03:40:28.262Z,100.00
2022-10-30T03:42:56.816Z,100.00
2022-10-30T03:45:25.635Z,100.00
2022-10-30T03:47:54.038Z,100.00
2022-10-30T03:50:22.309Z,100.00
2022-10-30T03:52:50.524Z,100.00
2022-10-30T03:55:37.211Z,100.00
2022-10-30T03:58:06.504Z,100.00
2022-10-30T04:00:36.155Z,100.00
2022-10-30T04:03:08.725Z,100.00
2022-10-30T04:05:39.062Z,100.00
2022-10-30T04:08:24.940Z,100.00
2022-10-30T04:10:53.338Z,100.00
2022-10-30T04:13:21.711Z,100.00
2022-10-30T04:15:57.160Z,100.00
2022-10-30T04:18:43.650Z,100.00
2022-10-30T04:21:29.201Z,100.00
2022-10-30T04:24:16.825Z,100.00
2022-10-30T04:26:45.136Z,100.00
2022-10-30T04:29:13.599Z,100.00
2022-10-30T04:31:41.852Z,100.00
2022-10-30T04:34:29.781Z,100.00
2022-10-30T04:37:15.830Z,100.00
2022-10-30T04:39:46.458Z,100.00
2022-10-30T04:42:14.895Z,100.00
2022-10-30T04:44:43.095Z,100.00
2022-10-30T04:47:12.359Z,100.00
2022-10-30T04:49:40.583Z,100.00
2022-10-30T04:52:08.822Z,100.00
2022-10-30T04:54:54.530Z,100.00
2022-10-30T04:57:40.927Z,100.00
2022-10-30T05:00:11.765Z,100.00
2022-10-30T05:02:40.183Z,100.00
2022-10-30T05:05:10.544Z,100.00
2022-10-30T05:07:38.970Z,100.00
2022-10-30T05:10:07.863Z,100.00
2022-10-30T05:12:36.166Z,100.00
2022-10-30T05:15:05.298Z,100.00
2022-10-30T05:17:33.759Z,100.00
2022-10-30T05:20:20.363Z,100.00
2022-10-30T05:23:06.502Z,100.00
2022-10-30T05:25:35.127Z,100.00
2022-10-30T05:28:06.540Z,100.00
2022-10-30T05:30:35.340Z,100.00
2022-10-30T05:33:11.463Z,100.00
2022-10-30T05:35:39.839Z,100.00
2022-10-30T05:38:08.271Z,100.00
2022-10-30T05:40:36.873Z,100.00
2022-10-30T05:43:06.021Z,100.00
2022-10-30T05:45:34.248Z,100.00
2022-10-30T05:48:06.874Z,100.00
2022-10-30T05:50:35.162Z,100.00
2022-10-30T05:53:05.350Z,100.00
2022-10-30T05:55:33.787Z,100.00
2022-10-30T05:58:19.435Z,100.00
2022-10-30T06:00:47.644Z,100.00
2022-10-30T06:03:15.869Z,100.00
2022-10-30T06:05:47.013Z,100.00
2022-10-30T06:08:18.174Z,100.00
2022-10-30T06:10:46.381Z,100.00
2022-10-30T06:13:14.634Z,100.00
2022-10-30T06:15:42.874Z,100.00
2022-10-30T06:18:11.253Z,100.00
2022-10-30T06:20:41.612Z,100.00
2022-10-30T06:23:27.341Z,100.00
2022-10-30T06:25:55.611Z,100.00
2022-10-30T06:28:23.867Z,100.00
2022-10-30T06:30:55.320Z,100.00
2022-10-30T06:33:23.542Z,100.00
2022-10-30T06:35:51.932Z,100.00
2022-10-30T06:38:20.218Z,100.00
2022-10-30T06:40:49.762Z,100.00
2022-10-30T06:43:17.984Z,100.00
2022-10-30T06:45:46.320Z,100.00
2022-10-30T06:48:14.611Z,100.00
2022-10-30T06:50:42.902Z,100.00
2022-10-30T06:53:11.204Z,100.00
2022-10-30T06:55:39.402Z,100.00
2022-10-30T06:58:07.808Z,100.00
2022-10-30T07:00:36.093Z,100.00
2022-10-30T07:03:04.864Z,100.00
2022-10-30T07:05:33.083Z,100.00
2022-10-30T07:08:01.421Z,100.00
2022-10-30T07:10:29.858Z,100.00
2022-10-30T07:13:16.071Z,100.00
2022-10-30T07:15:44.442Z,100.00
2022-10-30T07:18:12.704Z,100.00
2022-10-30T07:20:41.122Z,100.00
2022-10-30T07:23:09.346Z,100.00
2022-10-30T07:25:37.554Z,100.00
2022-10-30T07:28:06.316Z,100.00
2022-10-30T07:30:35.110Z,100.00
2022-10-30T07:33:07.656Z,100.00
2022-10-30T07:35:36.303Z,100.00
2022-10-30T07:38:22.023Z,100.00
2022-10-30T07:40:53.866Z,100.00
2022-10-30T07:43:39.953Z,100.00
2022-10-30T07:46:09.136Z,100.00
2022-10-30T07:48:37.977Z,100.00
2022-10-30T07:51:06.515Z,100.00
2022-10-30T07:53:52.715Z,100.00
2022-10-30T07:56:21.178Z,100.00
2022-10-30T07:59:06.897Z,100.00
2022-10-30T08:01:35.384Z,100.00
2022-10-30T08:04:03.817Z,100.00
2022-10-30T08:06:50.149Z,100.00
2022-10-30T08:09:18.418Z,100.00
2022-10-30T08:12:04.824Z,100.00
2022-10-30T08:14:50.871Z,100.00
2022-10-30T08:17:20.126Z,100.00
2022-10-30T08:19:48.380Z,100.00
2022-10-30T08:22:16.781Z,100.00
2022-10-30T08:24:45.252Z,100.00
2022-10-30T08:27:15.258Z,100.00
2022-10-30T08:29:43.547Z,100.00
2022-10-30T08:32:11.913Z,100.00
2022-10-30T08:34:41.667Z,100.00
2022-10-30T08:37:09.935Z,100.00
2022-10-30T08:39:38.849Z,100.00
2022-10-30T08:42:07.358Z,100.00
2022-10-30T08:44:35.663Z,100.00
2022-10-30T08:47:03.900Z,100.00
2022-10-30T08:49:32.184Z,100.00
2022-10-30T08:52:00.907Z,100.00
2022-10-30T08:54:29.189Z,100.00
2022-10-30T08:57:15.116Z,100.00
2022-10-30T08:59:43.378Z,100.00
2022-10-30T09:02:11.758Z,100.00
2022-10-30T09:04:40.140Z,100.00
2022-10-30T09:07:11.937Z,100.00
2022-10-30T09:10:02.251Z,100.00
2022-10-30T09:12:48.403Z,100.00
2022-10-30T09:15:33.898Z,100.00
2022-10-30T09:18:20.149Z,100.00
2022-10-30T09:20:49.710Z,100.00
2022-10-30T09:23:17.988Z,100.00
2022-10-30T09:25:46.190Z,100.00
2022-10-30T09:28:14.397Z,99.57
2022-10-30T09:31:02.311Z,99.30
2022-10-30T09:33:31.796Z,98.80
2022-10-30T09:36:02.605Z,98.65
2022-10-30T09:38:31.283Z,97.27
2022-10-30T09:41:23.919Z,96.88
2022-10-30T09:44:23.054Z,97.17
2022-10-30T09:47:23.467Z,97.23
2022-10-30T09:50:16.730Z,97.53
2022-10-30T09:53:07.106Z,97.10
2022-10-30T09:56:03.349Z,96.00
2022-10-30T09:59:02.792Z,94.88
2022-10-30T10:01:43.796Z,94.57
2022-10-30T10:04:33.357Z,94.77
2022-10-30T10:07:29.111Z,94.10
2022-10-30T10:10:05.436Z,93.45
2022-10-30T10:12:40.642Z,92.95
2022-10-30T10:15:35.200Z,92.63
2022-10-30T10:21:29.205Z,92.81
2022-10-30T10:24:03.567Z,92.62
2022-10-30T10:27:14.128Z,92.27
2022-10-30T10:30:05.248Z,91.85
2022-10-30T10:36:37.390Z,90.32
2022-10-30T10:39:23.431Z,89.69
2022-10-30T10:42:38.548Z,89.04
2022-10-30T10:45:20.524Z,88.65
2022-10-30T10:48:31.871Z,88.20
2022-10-30T10:51:09.802Z,87.13
2022-10-30T10:53:53.531Z,86.32
2022-10-30T10:56:29.725Z,85.92
2022-10-30T10:59:41.223Z,85.39
2022-10-30T11:02:09.515Z,84.91
2022-10-30T11:04:46.810Z,84.31
2022-10-30T11:07:32.328Z,84.28
2022-10-30T11:10:02.437Z,84.36
2022-10-30T11:12:48.172Z,84.13
2022-10-30T11:15:52.287Z,83.21
2022-10-30T11:18:20.650Z,83.08
2022-10-30T11:21:10.297Z,82.90
2022-10-30T11:23:44.180Z,82.28
2022-10-30T11:26:18.234Z,81.14
2022-10-30T11:28:52.620Z,80.58
2022-10-30T11:31:38.133Z,80.40
2022-10-30T11:34:18.862Z,80.03
2022-10-30T11:36:50.193Z,79.85
2022-10-30T11:39:36.066Z,79.05
2022-10-30T11:42:16.281Z,78.38
2022-10-30T11:44:51.955Z,78.04
2022-10-30T11:47:30.929Z,77.42
2022-10-30T11:50:06.645Z,76.73
2022-10-30T11:52:43.456Z,76.71
2022-10-30T11:55:27.338Z,76.52
2022-10-30T11:57:58.438Z,76.17
2022-10-30T12:00:45.325Z,75.80
2022-10-30T12:03:34.225Z,75.30
2022-10-30T12:06:24.876Z,75.09
2022-10-30T12:09:12.337Z,75.05
2022-10-30T12:11:44.941Z,74.38
2022-10-30T12:14:22.610Z,74.68
2022-10-30T12:16:53.285Z,74.26
2022-10-30T12:19:24.422Z,74.29
2022-10-30T12:21:57.150Z,73.90
2022-10-30T12:24:31.867Z,73.18
2022-10-30T12:27:12.517Z,73.06
2022-10-30T12:30:13.267Z,72.48
2022-10-30T12:33:22.770Z,72.15
2022-10-30T12:36:06.593Z,71.68
2022-10-30T12:38:59.096Z,71.91
2022-10-30T12:41:54.891Z,71.95
2022-10-30T12:45:08.053Z,71.87
2022-10-30T12:47:45.878Z,71.75
2022-10-30T12:50:13.993Z,71.53
2022-10-30T12:52:50.100Z,71.80
2022-10-30T12:55:29.954Z,71.91
2022-10-30T12:58:44.650Z,71.86
2022-10-30T13:01:59.203Z,71.93
2022-10-30T13:04:42.216Z,72.07
2022-10-30T13:07:22.501Z,72.40
2022-10-30T13:10:34.536Z,72.36
2022-10-30T13:13:16.740Z,72.17
2022-10-30T13:15:58.281Z,72.18
2022-10-30T13:18:44.277Z,72.15
2022-10-30T13:21:54.158Z,71.84
2022-10-30T13:24:57.911Z,71.45
2022-10-30T13:27:50.900Z,70.57
2022-10-30T13:30:25.592Z,70.39
2022-10-30T13:33:15.141Z,70.99
2022-10-30T13:36:21.851Z,71.05
2022-10-30T13:39:22.160Z,70.98
2022-10-30T13:42:14.933Z,71.22
2022-10-30T13:45:11.150Z,71.39
2022-10-30T13:48:04.059Z,71.61
2022-10-30T13:51:14.755Z,72.05
2022-10-30T13:53:48.381Z,72.15
2022-10-30T13:56:19.880Z,71.93
2022-10-30T13:59:16.964Z,71.73
2022-10-30T14:02:04.576Z,71.08
2022-10-30T14:05:01.897Z,70.89
2022-10-30T14:08:01.813Z,70.49
2022-10-30T14:10:45.658Z,69.75
2022-10-30T14:13:57.497Z,69.46
2022-10-30T14:16:39.076Z,68.67
2022-10-30T14:19:18.125Z,68.41
2022-10-30T14:21:55.842Z,68.05
2022-10-30T14:24:45.226Z,67.35
2022-10-30T14:27:33.570Z,67.25
2022-10-30T14:30:03.138Z,67.06
2022-10-30T14:32:52.553Z,66.57
2022-10-30T14:35:35.278Z,66.29
2022-10-30T14:38:26.436Z,65.37
2022-10-30T14:40:54.580Z,65.21
2022-10-30T14:44:23.596Z,65.14
2022-10-30T14:47:31.925Z,65.36
2022-10-30T14:50:26.290Z,65.29
2022-10-30T14:53:20.868Z,65.55
2022-10-30T14:56:00.193Z,65.83
2022-10-30T14:59:08.943Z,65.63
2022-10-30T15:02:04.084Z,65.59
2022-10-30T15:04:52.130Z,65.66
2022-10-30T15:07:38.385Z,65.64
2022-10-30T15:10:45.323Z,66.05
2022-10-30T15:13:31.340Z,66.29
2022-10-30T15:16:08.453Z,66.49
2022-10-30T15:18:39.803Z,66.75
2022-10-30T15:21:18.737Z,67.27
2022-10-30T15:23:47.058Z,67.73
2022-10-30T15:26:23.799Z,68.12
2022-10-30T15:28:53.837Z,68.58
2022-10-30T15:31:25.363Z,68.90
2022-10-30T15:34:23.070Z,69.51
2022-10-30T15:37:12.866Z,69.90
2022-10-30T15:39:41.072Z,70.17
2022-10-30T15:42:10.078Z,70.40
2022-10-30T15:44:43.167Z,70.88
2022-10-30T15:47:21.015Z,71.20
2022-10-30T15:50:07.115Z,71.71
2022-10-30T15:52:35.639Z,71.82
2022-10-30T15:55:13.495Z,72.12
2022-10-30T15:58:04.868Z,72.63
2022-10-30T16:00:38.231Z,73.21
2022-10-30T16:03:12.812Z,73.78
2022-10-30T16:06:13.302Z,74.16
2022-10-30T16:08:48.067Z,74.67
2022-10-30T16:11:34.679Z,74.97
2022-10-30T16:14:09.086Z,75.41
2022-10-30T16:16:37.690Z,75.65
2022-10-30T16:19:06.142Z,75.99
2022-10-30T16:21:35.186Z,76.41
2022-10-30T16:24:05.271Z,76.66
2022-10-30T16:26:37.383Z,77.15
2022-10-30T16:29:26.951Z,77.70
2022-10-30T16:32:16.753Z,78.05
2022-10-30T16:35:04.418Z,78.16
2022-10-30T16:37:53.253Z,78.49
2022-10-30T16:40:28.670Z,78.91
2022-10-30T16:43:34.962Z,79.38
2022-10-30T16:46:15.607Z,79.56
2022-10-30T16:48:53.820Z,79.74
2022-10-30T16:51:22.957Z,79.68
2022-10-30T16:54:23.711Z,79.98
2022-10-30T16:56:56.078Z,80.28
2022-10-30T16:59:46.268Z,80.52
2022-10-30T17:02:20.469Z,80.89
2022-10-30T17:05:25.414Z,81.17
2022-10-30T17:08:05.242Z,81.43
2022-10-30T17:10:36.482Z,81.88
2022-10-30T17:13:35.215Z,82.25
2022-10-30T17:16:31.034Z,82.65
2022-10-30T17:19:30.110Z,82.93
2022-10-30T17:22:02.531Z,83.76
2022-10-30T17:24:48.651Z,84.17
2022-10-30T17:27:36.569Z,84.34
2022-10-30T17:30:35.991Z,84.59
2022-10-30T17:33:35.391Z,85.00
2022-10-30T17:36:06.144Z,85.28
2022-10-30T17:38:34.765Z,85.12
2022-10-30T17:41:20.447Z,85.37
2022-10-30T17:43:55.276Z,85.32
2022-10-30T17:46:24.323Z,85.54
2022-10-30T17:49:25.001Z,86.09
2022-10-30T17:52:18.428Z,86.16
2022-10-30T17:54:46.900Z,86.64
2022-10-30T17:57:16.916Z,87.10
2022-10-30T17:59:45.510Z,87.56
2022-10-30T18:02:23.009Z,87.90
2022-10-30T18:04:53.296Z,88.05
2022-10-30T18:07:21.549Z,88.17
2022-10-30T18:09:49.775Z,88.18
2022-10-30T18:12:19.274Z,88.14
2022-10-30T18:15:36.605Z,88.13
2022-10-30T18:18:05.971Z,88.42
2022-10-30T18:20:34.460Z,88.55
2022-10-30T18:23:03.420Z,88.70
2022-10-30T18:25:36.117Z,89.04
2022-10-30T18:28:04.771Z,89.38
2022-10-30T18:30:33.132Z,89.61
2022-10-30T18:33:02.168Z,89.90
2022-10-30T18:35:39.236Z,89.72
2022-10-30T18:38:25.472Z,89.84
2022-10-30T18:40:53.905Z,89.94
2022-10-30T18:43:22.160Z,90.00
2022-10-30T18:45:50.570Z,89.82
2022-10-30T18:48:36.891Z,89.98
2022-10-30T18:51:12.538Z,90.46
2022-10-30T18:53:40.770Z,91.09
2022-10-30T18:56:10.395Z,91.13
2022-10-30T18:58:38.658Z,91.51
2022-10-30T19:01:12.131Z,91.82
2022-10-30T19:03:41.849Z,92.38
2022-10-30T19:06:13.696Z,92.99
2022-10-30T19:08:59.317Z,93.54
2022-10-30T19:11:30.929Z,93.71
2022-10-30T19:13:59.933Z,93.85
2022-10-30T19:16:29.116Z,93.93
2022-10-30T19:18:57.399Z,94.05
2022-10-30T19:21:26.269Z,94.07
2022-10-30T19:24:15.563Z,93.78
2022-10-30T19:26:43.879Z,93.80
2022-10-30T19:29:29.916Z,93.89
2022-10-30T19:31:58.171Z,93.82
2022-10-30T19:34:26.430Z,93.69
2022-10-30T19:36:56.649Z,93.32
2022-10-30T19:39:25.202Z,93.09
2022-10-30T19:41:53.547Z,92.85
2022-10-30T19:44:21.803Z,92.42
2022-10-30T19:47:10.589Z,92.31
2022-10-30T19:49:56.410Z,91.82
2022-10-30T19:52:29.147Z,91.61
2022-10-30T19:55:17.375Z,91.34
2022-10-30T19:57:46.483Z,91.65
2022-10-30T20:00:21.299Z,91.88
2022-10-30T20:03:07.909Z,92.17
2022-10-30T20:05:40.600Z,92.39
2022-10-30T20:08:17.934Z,92.30
2022-10-30T20:11:03.898Z,92.21
2022-10-30T20:13:33.449Z,92.26
2022-10-30T20:16:07.290Z,92.14
2022-10-30T20:18:36.432Z,92.17
2022-10-30T20:21:10.640Z,92.37
2022-10-30T20:23:39.536Z,92.44
2022-10-30T20:26:30.137Z,92.46
2022-10-30T20:29:02.250Z,92.43
2022-10-30T20:31:30.555Z,92.44
2022-10-30T20:33:58.886Z,92.55
2022-10-30T20:36:29.138Z,92.73
2022-10-30T20:38:57.561Z,92.58
2022-10-30T20:41:29.386Z,92.67
2022-10-30T20:44:00.165Z,92.90
2022-10-30T20:46:28.633Z,92.99
2022-10-30T20:48:57.054Z,93.33
2022-10-30T20:51:25.836Z,93.36
2022-10-30T20:53:54.693Z,93.48
2022-10-30T20:56:23.114Z,93.64
2022-10-30T20:58:53.469Z,93.77
2022-10-30T21:01:21.850Z,93.85
2022-10-30T21:03:50.972Z,93.89
2022-10-30T21:06:19.249Z,93.92
2022-10-30T21:08:47.481Z,93.96
2022-10-30T21:11:18.097Z,94.10
2022-10-30T21:13:46.397Z,94.03
2022-10-30T21:16:14.609Z,94.12
2022-10-30T21:18:42.931Z,94.30
2022-10-30T21:21:13.433Z,94.44
2022-10-30T21:23:41.743Z,94.65
2022-10-30T21:26:11.829Z,94.86
2022-10-30T21:28:41.222Z,95.00
2022-10-30T21:31:13.274Z,95.26
2022-10-30T21:33:41.591Z,95.57
2022-10-30T21:36:27.538Z,95.93
2022-10-30T21:38:58.401Z,95.92
2022-10-30T21:41:27.172Z,95.96
2022-10-30T21:43:57.494Z,95.95
2022-10-30T21:46:29.390Z,95.90
2022-10-30T21:49:06.204Z,95.88
2022-10-30T21:51:34.969Z,95.58
2022-10-30T21:54:03.424Z,95.40
2022-10-30T21:56:50.114Z,95.30
2022-10-30T21:59:18.399Z,95.28
2022-10-30T22:01:46.823Z,95.12
2022-10-30T22:04:16.219Z,95.04
2022-10-30T22:06:44.814Z,95.08
2022-10-30T22:09:18.295Z,95.16
2022-10-30T22:12:04.475Z,95.20
2022-10-30T22:14:32.669Z,95.35
2022-10-30T22:17:18.249Z,95.49
2022-10-30T22:19:46.574Z,95.52
2022-10-30T22:22:14.802Z,95.64
2022-10-30T22:24:43.075Z,95.65
2022-10-30T22:27:11.392Z,95.82
2022-10-30T22:29:39.626Z,96.06
2022-10-30T22:32:07.872Z,95.66
2022-10-30T22:34:36.135Z,95.40
2022-10-30T22:37:21.621Z,95.38
2022-10-30T22:39:49.793Z,95.30
2022-10-30T22:42:18.030Z,95.15
2022-10-30T22:44:46.365Z,95.69
2022-10-30T22:47:14.604Z,95.92
2022-10-30T22:49:42.867Z,96.18
2022-10-30T22:52:11.155Z,96.26
2022-10-30T22:54:39.385Z,96.17
2022-10-30T22:57:07.599Z,96.02
2022-10-30T22:59:51.245Z,95.86
2022-10-30T23:02:19.499Z,95.84
2022-10-30T23:04:47.805Z,95.66
2022-10-30T23:07:17.043Z,95.77
2022-10-30T23:09:45.299Z,95.84
2022-10-30T23:12:13.557Z,95.98
2022-10-30T23:14:41.809Z,96.00
2022-10-30T23:17:10.050Z,96.10
2022-10-30T23:19:38.460Z,96.22
2022-10-30T23:22:06.849Z,96.24
2022-10-30T23:24:35.137Z,96.18
2022-10-30T23:27:03.486Z,96.43
2022-10-30T23:29:31.929Z,96.69
2022-10-30T23:32:00.252Z,96.96
2022-10-30T23:34:28.504Z,97.11
2022-10-30T23:36:59.188Z,97.29
2022-10-30T23:39:30.303Z,97.74
2022-10-30T23:41:58.526Z,97.80
2022-10-30T23:44:26.735Z,97.88
2022-10-30T23:46:54.921Z,98.00
2022-10-30T23:49:23.142Z,98.17
2022-10-30T23:51:51.429Z,98.20
2022-10-30T23:54:19.674Z,98.05
2022-10-30T23:56:48.024Z,97.99
2022-10-30T23:59:16.258Z,98.14
